sensor_id;sensor_type;location;lat;lon;timestamp;P1;durP1;ratioP1;P2;durP2;ratioP2
22754;SDS011;11544;42.020;23.094;2023-07-28T06:01:39;7.20;;;3.40;;
22754;SDS011;11544;42.020;23.094;2023-07-28T06:04:06;9.38;;;3.17;;
22754;SDS011;11544;42.020;23.094;2023-07-28T06:06:33;7.85;;;3.67;;
22754;SDS011;11544;42.020;23.094;2023-07-28T06:09:00;7.63;;;3.40;;
22754;SDS011;11544;42.020;23.094;2023-07-28T06:11:27;12.13;;;3.45;;
22754;SDS011;11544;42.020;23.094;2023-07-28T06:13:54;7.85;;;3.00;;
22754;SDS011;11544;42.020;23.094;2023-07-28T06:16:22;11.98;;;3.90;;
22754;SDS011;11544;42.020;23.094;2023-07-28T06:18:49;5.68;;;2.75;;
22754;SDS011;11544;42.020;23.094;2023-07-28T06:21:16;5.30;;;2.90;;
22754;SDS011;11544;42.020;23.094;2023-07-28T06:23:43;6.82;;;2.60;;
22754;SDS011;11544;42.020;23.094;2023-07-28T06:26:10;6.25;;;2.75;;
22754;SDS011;11544;42.020;23.094;2023-07-28T07:38:53;8.02;;;3.17;;
22754;SDS011;11544;42.020;23.094;2023-07-28T08:05:25;2.95;;;2.20;;
22754;SDS011;11544;42.020;23.094;2023-07-28T08:07:52;5.97;;;2.28;;
22754;SDS011;11544;42.020;23.094;2023-07-28T08:10:19;5.25;;;2.42;;
22754;SDS011;11544;42.020;23.094;2023-07-28T11:45:49;2.38;;;1.90;;
22754;SDS011;11544;42.020;23.094;2023-07-28T11:48:18;1.60;;;1.50;;
22754;SDS011;11544;42.020;23.094;2023-07-28T11:50:45;3.10;;;1.50;;
22754;SDS011;11544;42.020;23.094;2023-07-28T11:53:12;5.40;;;1.90;;
22754;SDS011;11544;42.020;23.094;2023-07-28T11:55:40;3.72;;;1.73;;
22754;SDS011;11544;42.020;23.094;2023-07-28T11:58:10;1.77;;;1.67;;
22754;SDS011;11544;42.020;23.094;2023-07-28T12:00:39;2.17;;;1.83;;
22754;SDS011;11544;42.020;23.094;2023-07-28T12:03:10;2.10;;;1.52;;
22754;SDS011;11544;42.020;23.094;2023-07-28T12:05:40;4.68;;;2.08;;
22754;SDS011;11544;42.020;23.094;2023-07-28T12:08:10;2.88;;;2.00;;
22754;SDS011;11544;42.020;23.094;2023-07-28T12:10:48;2.45;;;1.70;;
22754;SDS011;11544;42.020;23.094;2023-07-28T12:13:23;2.40;;;1.75;;
22754;SDS011;11544;42.020;23.094;2023-07-28T12:15:59;1.85;;;1.70;;
22754;SDS011;11544;42.020;23.094;2023-07-28T12:18:29;2.42;;;1.98;;
22754;SDS011;11544;42.020;23.094;2023-07-28T12:21:00;1.85;;;1.65;;
22754;SDS011;11544;42.020;23.094;2023-07-28T12:23:30;3.38;;;2.13;;
22754;SDS011;11544;42.020;23.094;2023-07-28T12:26:00;1.70;;;1.55;;
22754;SDS011;11544;42.020;23.094;2023-07-28T12:28:27;2.08;;;1.70;;
22754;SDS011;11544;42.020;23.094;2023-07-28T12:30:57;1.90;;;1.55;;
22754;SDS011;11544;42.020;23.094;2023-07-28T12:33:28;2.70;;;1.70;;
22754;SDS011;11544;42.020;23.094;2023-07-28T12:36:00;2.65;;;1.88;;
22754;SDS011;11544;42.020;23.094;2023-07-28T12:38:49;2.50;;;2.03;;
22754;SDS011;11544;42.020;23.094;2023-07-28T12:41:19;2.90;;;1.83;;
22754;SDS011;11544;42.020;23.094;2023-07-28T12:44:05;2.17;;;1.98;;
22754;SDS011;11544;42.020;23.094;2023-07-28T12:46:42;3.83;;;1.63;;
22754;SDS011;11544;42.020;23.094;2023-07-28T12:49:11;1.95;;;1.80;;
22754;SDS011;11544;42.020;23.094;2023-07-28T12:51:47;2.22;;;2.03;;
22754;SDS011;11544;42.020;23.094;2023-07-28T12:54:17;2.40;;;2.20;;
22754;SDS011;11544;42.020;23.094;2023-07-28T15:34:59;3.53;;;2.00;;
22754;SDS011;11544;42.020;23.094;2023-07-28T15:37:30;4.53;;;2.20;;
22754;SDS011;11544;42.020;23.094;2023-07-28T15:40:05;1.98;;;1.70;;
22754;SDS011;11544;42.020;23.094;2023-07-28T15:42:38;3.38;;;2.20;;
22754;SDS011;11544;42.020;23.094;2023-07-28T15:45:07;3.80;;;2.08;;
22754;SDS011;11544;42.020;23.094;2023-07-28T15:47:34;3.17;;;2.28;;
22754;SDS011;11544;42.020;23.094;2023-07-28T15:50:03;3.97;;;2.05;;
22754;SDS011;11544;42.020;23.094;2023-07-28T15:52:32;2.45;;;2.20;;
22754;SDS011;11544;42.020;23.094;2023-07-28T15:54:59;2.83;;;2.13;;
22754;SDS011;11544;42.020;23.094;2023-07-28T15:57:29;3.13;;;2.20;;
22754;SDS011;11544;42.020;23.094;2023-07-28T15:59:57;2.10;;;1.90;;
22754;SDS011;11544;42.020;23.094;2023-07-28T16:02:25;3.03;;;2.55;;
22754;SDS011;11544;42.020;23.094;2023-07-28T16:04:53;5.63;;;2.17;;
22754;SDS011;11544;42.020;23.094;2023-07-28T16:07:20;2.20;;;2.00;;
22754;SDS011;11544;42.020;23.094;2023-07-28T16:09:49;3.17;;;2.00;;
22754;SDS011;11544;42.020;23.094;2023-07-28T16:12:16;2.80;;;2.05;;
22754;SDS011;11544;42.020;23.094;2023-07-28T16:14:43;2.75;;;2.15;;
22754;SDS011;11544;42.020;23.094;2023-07-28T16:17:10;2.28;;;2.08;;
22754;SDS011;11544;42.020;23.094;2023-07-28T16:19:38;2.95;;;2.10;;
22754;SDS011;11544;42.020;23.094;2023-07-28T16:22:05;3.42;;;2.50;;
22754;SDS011;11544;42.020;23.094;2023-07-28T16:24:32;4.30;;;2.15;;
22754;SDS011;11544;42.020;23.094;2023-07-28T16:26:59;6.22;;;2.97;;
22754;SDS011;11544;42.020;23.094;2023-07-28T16:29:26;2.88;;;2.13;;
22754;SDS011;11544;42.020;23.094;2023-07-28T16:31:53;3.28;;;2.00;;
22754;SDS011;11544;42.020;23.094;2023-07-28T16:34:20;3.55;;;2.10;;
22754;SDS011;11544;42.020;23.094;2023-07-28T16:36:48;2.38;;;2.10;;
22754;SDS011;11544;42.020;23.094;2023-07-28T16:39:15;1.92;;;1.73;;
22754;SDS011;11544;42.020;23.094;2023-07-28T16:41:44;4.45;;;2.40;;
22754;SDS011;11544;42.020;23.094;2023-07-28T16:44:16;3.75;;;2.10;;
22754;SDS011;11544;42.020;23.094;2023-07-28T18:14:30;2.97;;;2.50;;
22754;SDS011;11544;42.020;23.094;2023-07-28T18:17:00;3.28;;;2.80;;
22754;SDS011;11544;42.020;23.094;2023-07-28T18:19:40;3.53;;;2.70;;
22754;SDS011;11544;42.020;23.094;2023-07-28T18:22:10;3.78;;;2.17;;
22754;SDS011;11544;42.020;23.094;2023-07-28T18:24:37;4.47;;;2.47;;
22754;SDS011;11544;42.020;23.094;2023-07-28T18:27:09;3.65;;;2.40;;
22754;SDS011;11544;42.020;23.094;2023-07-28T18:29:36;2.97;;;2.05;;
22754;SDS011;11544;42.020;23.094;2023-07-28T18:32:03;3.55;;;2.50;;
22754;SDS011;11544;42.020;23.094;2023-07-28T18:34:31;5.78;;;2.38;;
22754;SDS011;11544;42.020;23.094;2023-07-28T18:37:04;2.40;;;2.20;;
22754;SDS011;11544;42.020;23.094;2023-07-28T18:39:38;2.72;;;2.42;;
22754;SDS011;11544;42.020;23.094;2023-07-28T20:12:10;4.45;;;2.58;;
22754;SDS011;11544;42.020;23.094;2023-07-28T20:14:38;4.57;;;3.55;;
22754;SDS011;11544;42.020;23.094;2023-07-28T20:17:07;5.38;;;3.38;;
22754;SDS011;11544;42.020;23.094;2023-07-28T20:19:35;6.40;;;3.50;;
22754;SDS011;11544;42.020;23.094;2023-07-28T20:22:04;6.55;;;3.22;;
22754;SDS011;11544;42.020;23.094;2023-07-28T20:24:34;9.30;;;3.28;;
22754;SDS011;11544;42.020;23.094;2023-07-28T20:27:05;6.80;;;3.00;;
22754;SDS011;11544;42.020;23.094;2023-07-28T20:29:42;4.97;;;2.90;;
22754;SDS011;11544;42.020;23.094;2023-07-28T20:32:12;4.18;;;2.70;;
